Terminal Aerodrome Forecast
Issued by NWS Amarillo, TX

Home | Current Version | Previous Version | Text Only | Print | Product List | Glossary On
Versions: 1 2 3 4 5 6 7 8 9 10 11 12 13 14
873
FTUS44 KAMA 252330
TAFGUY
TAF
KGUY 252330Z 2600/2624 19014G23KT P6SM SCT100 SCT300
     FM260400 19013KT P6SM SCT120 SCT300
     FM261400 22013KT P6SM SCT070=

USA.gov is the U.S. government's official web portal to all federal, state and local government web resources and services.